Time;durP1;ratioP1;P1;durP2;ratioP2;P2;SDS_P1;SDS_P2;PMS_P1;PMS_P2;Temp;Humidity;BMP_temperature;BMP_pressure;BME280_temperature;BME280_humidity;BME280_pressure;Samples;Min_cycle;Max_cycle;Signal;HPM_P1;HPM_P2
2023/06/12 00:00:43;;;;;;;9.02;7.13;;;;;;;20.22;54.31;93440.16;4992623;28;20060;-89
2023/06/12 00:03:09;;;;;;;9.18;7.20;;;;;;;20.19;54.22;93439.19;5025814;28;20034;-88
2023/06/12 00:05:35;;;;;;;10.07;7.18;;;;;;;20.19;54.09;93428.94;5026718;28;20629;-87
2023/06/12 00:08:00;;;;;;;7.57;6.65;;;;;;;20.19;54.29;93436.44;5003937;28;20058;-87
2023/06/12 00:10:26;;;;;;;8.63;6.93;;;;;;;20.17;54.25;93434.22;4995110;28;20037;-88
2023/06/12 00:12:51;;;;;;;9.15;7.20;;;;;;;20.18;54.14;93432.94;5009391;28;20044;-86
2023/06/12 00:15:17;;;;;;;9.30;7.55;;;;;;;20.17;54.01;93436.97;4992750;28;20038;-89
2023/06/12 00:17:42;;;;;;;7.90;7.07;;;;;;;20.18;54.10;93429.47;5026132;28;20052;-87
2023/06/12 00:20:08;;;;;;;9.38;7.10;;;;;;;20.17;54.12;93425.97;4992095;28;20065;-86
2023/06/12 00:22:39;;;;;;;8.18;7.03;;;;;;;20.17;54.01;93427.97;5025954;28;20073;-88
2023/06/12 00:25:06;;;;;;;8.75;7.45;;;;;;;20.17;54.12;93414.25;4998634;28;20503;-87
2023/06/12 00:27:32;;;;;;;9.32;7.30;;;;;;;20.15;53.96;93423.00;4993476;28;20132;-87
2023/06/12 00:29:57;;;;;;;8.18;7.22;;;;;;;20.16;53.83;93421.00;5025753;28;20052;-88
2023/06/12 00:32:23;;;;;;;8.73;7.05;;;;;;;20.16;54.02;93419.00;4992412;28;20052;-87
2023/06/12 00:34:48;;;;;;;8.77;7.13;;;;;;;20.15;53.68;93417.53;5005959;28;20046;-90
2023/06/12 00:37:14;;;;;;;7.90;7.20;;;;;;;20.16;53.78;93402.53;5007879;28;20041;-87
2023/06/12 00:39:39;;;;;;;8.00;7.10;;;;;;;20.14;53.69;93405.06;5025787;28;20079;-87
2023/06/12 00:42:06;;;;;;;8.95;7.38;;;;;;;20.15;53.69;93403.06;5008748;28;20053;-87
2023/06/12 00:44:31;;;;;;;10.77;7.20;;;;;;;20.16;53.62;93396.31;5009226;28;20605;-87
2023/06/12 00:46:57;;;;;;;7.65;6.80;;;;;;;20.16;53.61;93399.06;4991998;28;20037;-87
2023/06/12 00:49:22;;;;;;;8.00;7.20;;;;;;;20.14;53.43;93388.59;4986697;28;20400;-90
2023/06/12 00:51:48;;;;;;;8.75;6.90;;;;;;;20.14;53.39;93385.84;5020313;28;20243;-88
2023/06/12 00:54:13;;;;;;;8.50;7.40;;;;;;;20.13;53.37;93389.88;5008531;28;20529;-87
2023/06/12 00:56:39;;;;;;;10.23;7.75;;;;;;;20.12;53.26;93385.66;5025312;28;20045;-90
2023/06/12 00:59:04;;;;;;;8.30;7.05;;;;;;;20.13;53.11;93386.41;4991304;28;20045;-87
2023/06/12 01:01:29;;;;;;;7.53;6.43;;;;;;;20.14;53.03;93388.59;5016487;28;20123;-88
2023/06/12 01:03:56;;;;;;;8.15;7.35;;;;;;;20.12;53.19;93396.63;5009279;28;20037;-90
2023/06/12 01:06:22;;;;;;;7.80;6.90;;;;;;;20.13;53.20;93408.34;5008755;28;20038;-88
2023/06/12 01:08:55;;;;;;;8.63;7.47;;;;;;;20.09;53.41;93392.19;4982381;28;20042;-87
2023/06/12 01:11:20;;;;;;;8.20;7.10;;;;;;;20.09;52.94;93405.16;5004561;28;20460;-91
2023/06/12 01:13:46;;;;;;;9.02;7.93;;;;;;;20.13;52.90;93387.16;5016779;28;20076;-87
2023/06/12 01:16:11;;;;;;;7.85;6.55;;;;;;;20.11;53.29;93392.41;5007588;28;20118;-88
2023/06/12 01:18:37;;;;;;;10.10;7.88;;;;;;;20.10;52.95;93396.41;4989051;28;20293;-86
2023/06/12 01:21:05;;;;;;;7.10;6.40;;;;;;;20.11;52.66;93397.16;5038941;28;20037;-87
2023/06/12 01:23:39;;;;;;;8.15;7.28;;;;;;;20.10;52.85;93390.94;5059648;28;20044;-87
2023/06/12 01:26:42;;;;;;;10.27;7.30;;;;;;;20.09;52.81;93388.69;5041957;28;20712;-87
2023/06/12 01:29:17;;;;;;;9.48;8.30;;;;;;;20.08;52.75;93392.72;5042950;28;20072;-87
2023/06/12 01:32:07;;;;;;;9.55;6.68;;;;;;;20.08;52.78;93381.72;5026669;28;20041;-87
2023/06/12 01:34:57;;;;;;;9.05;8.05;;;;;;;20.07;52.77;93386.47;5018819;28;20041;-87
2023/06/12 01:37:43;;;;;;;8.43;6.10;;;;;;;20.08;52.71;93382.47;5042444;28;20052;-87
2023/06/12 01:40:09;;;;;;;9.82;7.10;;;;;;;20.07;52.39;93383.00;5039801;28;20072;-87
2023/06/12 01:42:35;;;;;;;7.93;7.13;;;;;;;20.08;52.46;93384.47;5026238;28;20126;-88
2023/06/12 01:45:00;;;;;;;12.68;7.40;;;;;;;20.06;52.50;93385.00;5026326;28;20103;-87
2023/06/12 01:47:27;;;;;;;11.55;7.00;;;;;;;20.05;52.46;93382.78;5025322;28;20214;-88
2023/06/12 01:49:52;;;;;;;8.82;6.93;;;;;;;20.04;52.39;93384.78;5026709;28;20839;-90
2023/06/12 01:52:18;;;;;;;10.07;6.15;;;;;;;20.05;52.46;93383.50;5028995;28;20055;-89
2023/06/12 01:54:50;;;;;;;8.65;7.68;;;;;;;20.08;52.73;93376.97;5044235;28;20530;-86
2023/06/12 01:57:19;;;;;;;9.02;7.05;;;;;;;20.07;52.20;93383.75;5011129;28;20034;-87
2023/06/12 01:59:45;;;;;;;8.02;6.22;;;;;;;20.04;52.41;93379.28;5022471;28;20056;-91
2023/06/12 02:02:11;;;;;;;8.50;6.90;;;;;;;20.05;52.35;93380.78;5024691;28;20484;-87
2023/06/12 02:04:36;;;;;;;8.38;6.65;;;;;;;20.05;52.31;93380.78;5044741;28;20037;-87
2023/06/12 02:07:02;;;;;;;8.15;6.20;;;;;;;20.07;52.19;93375.50;5045649;28;20061;-87
2023/06/12 02:09:27;;;;;;;9.57;7.47;;;;;;;20.04;52.40;93382.03;5006968;28;20043;-89
2023/06/12 02:11:52;;;;;;;7.57;6.40;;;;;;;20.04;52.20;93375.81;5029872;28;20418;-90
2023/06/12 02:14:18;;;;;;;8.25;5.93;;;;;;;20.03;52.29;93377.81;5031387;28;20694;-92
2023/06/12 02:16:45;;;;;;;7.78;6.82;;;;;;;20.04;52.02;93378.53;5031868;28;20048;-89
2023/06/12 02:19:12;;;;;;;6.80;6.07;;;;;;;20.04;51.93;93376.53;5031476;28;20048;-89
2023/06/12 02:21:37;;;;;;;7.45;6.65;;;;;;;20.02;52.13;93370.84;5048192;28;20049;-87
2023/06/12 02:24:03;;;;;;;9.25;6.32;;;;;;;20.02;52.06;93365.34;5037145;28;20103;-89
2023/06/12 02:26:28;;;;;;;7.60;6.28;;;;;;;20.01;52.09;93366.59;5027453;28;20083;-87
2023/06/12 02:29:11;;;;;;;7.43;6.72;;;;;;;20.01;52.22;93366.59;5031388;28;20087;-90
2023/06/12 02:31:37;;;;;;;9.23;6.72;;;;;;;20.01;52.02;93376.84;5035326;28;20419;-90
2023/06/12 02:34:02;;;;;;;7.10;5.88;;;;;;;20.01;51.95;93379.59;5049836;28;20033;-88
2023/06/12 02:36:28;;;;;;;6.90;5.90;;;;;;;20.01;52.01;93368.59;5022363;28;20564;-88
2023/06/12 02:38:53;;;;;;;7.10;5.93;;;;;;;20.01;51.62;93369.34;5047323;28;20049;-87
2023/06/12 02:41:19;;;;;;;8.13;6.97;;;;;;;20.01;51.61;93368.59;5039488;28;20033;-88
2023/06/12 02:43:44;;;;;;;8.13;6.40;;;;;;;19.99;51.07;93374.63;5024826;28;20045;-87
2023/06/12 02:46:10;;;;;;;6.82;6.13;;;;;;;20.01;51.53;93376.84;5047237;28;20037;-89
2023/06/12 02:48:35;;;;;;;9.13;6.10;;;;;;;20.02;51.59;93375.59;5027594;28;20041;-91
2023/06/12 02:51:00;;;;;;;6.72;5.93;;;;;;;19.99;51.77;93385.59;5047258;28;20037;-88
2023/06/12 02:53:26;;;;;;;6.85;6.15;;;;;;;19.98;51.53;93381.38;5043774;28;20459;-87
2023/06/12 02:55:51;;;;;;;6.45;5.75;;;;;;;20.00;51.53;93383.59;5022726;28;20380;-87
2023/06/12 02:58:17;;;;;;;7.65;6.07;;;;;;;19.97;51.42;93385.38;5010354;28;20099;-87
2023/06/12 03:00:43;;;;;;;7.72;6.95;;;;;;;19.99;51.54;93387.59;5043291;28;20499;-90
2023/06/12 03:03:09;;;;;;;6.35;5.70;;;;;;;19.98;51.45;93381.38;5007867;28;20129;-87
2023/06/12 03:05:36;;;;;;;6.88;6.18;;;;;;;19.98;51.48;93381.38;5032739;28;20037;-87
2023/06/12 03:08:02;;;;;;;6.95;5.95;;;;;;;19.94;51.47;93380.91;5043809;28;20116;-89
2023/06/12 03:10:28;;;;;;;7.55;6.15;;;;;;;19.97;51.56;93388.13;5010696;28;20044;-87
2023/06/12 03:12:53;;;;;;;7.82;6.50;;;;;;;19.97;51.54;93390.13;5027091;28;20055;-90
2023/06/12 03:15:18;;;;;;;7.45;6.55;;;;;;;19.97;51.25;93388.13;5012440;28;20038;-87
2023/06/12 03:17:44;;;;;;;7.03;5.78;;;;;;;19.97;51.36;93390.13;5030760;28;20349;-87
2023/06/12 03:20:10;;;;;;;8.50;7.10;;;;;;;20.00;51.11;93397.31;5029897;28;20041;-88
2023/06/12 03:22:35;;;;;;;6.70;6.07;;;;;;;19.97;51.29;93390.13;5025326;28;20522;-88
2023/06/12 03:25:01;;;;;;;7.03;6.13;;;;;;;19.98;51.08;93394.34;5010178;28;20045;-89
2023/06/12 03:27:29;;;;;;;9.95;7.18;;;;;;;19.99;51.15;93387.59;5042151;28;20060;-87
2023/06/12 03:29:55;;;;;;;7.80;6.35;;;;;;;19.99;50.99;93395.81;5051869;28;20163;-89
2023/06/12 03:32:20;;;;;;;27.23;7.10;;;;;;;19.97;51.47;93396.34;5027573;28;20026;-89
2023/06/12 03:34:47;;;;;;;29.85;23.67;;;;;;;20.04;51.43;93395.75;5031642;28;20040;-89
2023/06/12 03:37:12;;;;;;;45.97;30.88;;;;;;;20.03;50.51;93397.00;5007474;28;20033;-90
2023/06/12 03:39:38;;;;;;;13.60;10.35;;;;;;;20.07;50.81;93393.97;5059320;28;20240;-92
2023/06/12 03:42:04;;;;;;;36.17;22.63;;;;;;;20.07;51.07;93396.72;5032324;28;20481;-90
2023/06/12 03:44:29;;;;;;;37.70;32.10;;;;;;;20.12;51.20;93393.91;5019532;28;20155;-87
2023/06/12 03:46:55;;;;;;;40.97;31.55;;;;;;;20.11;51.11;93389.66;5064946;28;20037;-89
2023/06/12 03:49:21;;;;;;;35.15;24.13;;;;;;;20.12;51.05;93384.91;5026295;28;20034;-92
2023/06/12 03:51:52;;;;;;;33.40;25.55;;;;;;;20.06;50.59;93390.47;5070321;28;20056;-90
2023/06/12 03:54:18;;;;;;;31.58;20.67;;;;;;;20.08;50.54;93387.97;5034586;28;20036;-89
2023/06/12 03:56:43;;;;;;;31.38;18.65;;;;;;;20.03;50.33;93380.53;5017089;28;20051;-91
2023/06/12 03:59:10;;;;;;;31.90;16.42;;;;;;;19.97;50.31;93385.38;5030667;28;20540;-87
2023/06/12 04:01:36;;;;;;;25.65;10.02;;;;;;;19.82;48.67;93393.34;5064849;28;20044;-89
2023/06/12 04:04:01;;;;;;;30.17;12.45;;;;;;;19.55;49.25;93395.19;5049520;28;20114;-88
2023/06/12 04:06:29;;;;;;;23.17;8.25;;;;;;;19.37;48.72;93393.91;5028748;28;20047;-89
2023/06/12 04:08:54;;;;;;;30.10;8.90;;;;;;;19.35;48.96;93390.19;5026178;28;20048;-87
2023/06/12 04:11:20;;;;;;;29.00;8.45;;;;;;;19.28;48.79;93391.50;5018453;28;20054;-92
2023/06/12 04:13:49;;;;;;;19.50;8.00;;;;;;;19.20;48.62;93393.38;5022253;28;20135;-91
2023/06/12 04:16:15;;;;;;;18.55;6.82;;;;;;;19.04;49.19;93397.78;5047686;28;20135;-92
2023/06/12 04:18:40;;;;;;;12.90;7.25;;;;;;;19.04;49.18;93391.56;5064389;28;20111;-90
2023/06/12 04:21:06;;;;;;;46.78;29.55;;;;;;;18.99;49.33;93395.84;5048697;28;20064;-92
2023/06/12 04:23:33;;;;;;;69.90;32.70;;;;;;;18.92;49.72;93396.41;5028046;28;20074;-89
2023/06/12 04:26:05;;;;;;;66.20;34.70;;;;;;;18.82;49.79;93390.56;5044723;28;20109;-92
2023/06/12 04:28:34;;;;;;;98.50;50.72;;;;;;;18.82;49.87;93395.28;5027507;28;20041;-88
2023/06/12 04:31:00;;;;;;;142.07;78.55;;;;;;;18.84;49.70;93398.97;5058236;28;20052;-89
2023/06/12 04:33:30;;;;;;;81.93;47.75;;;;;;;18.73;49.85;93401.09;5057587;28;20491;-89
2023/06/12 04:35:58;;;;;;;99.77;58.13;;;;;;;18.71;50.07;93398.88;5016228;28;20049;-91
2023/06/12 04:38:36;;;;;;;102.30;54.80;;;;;;;18.71;49.96;93403.59;5056204;28;20038;-92
2023/06/12 04:41:03;;;;;;;94.80;45.40;;;;;;;18.71;50.16;93403.59;5051791;28;20025;-91
2023/06/12 04:43:29;;;;;;;56.00;31.27;;;;;;;18.67;50.08;93405.88;5023838;28;20041;-89
2023/06/12 04:45:55;;;;;;;52.92;28.65;;;;;;;18.63;50.34;93403.41;5008554;28;20047;-89
2023/06/12 04:48:21;;;;;;;60.33;34.58;;;;;;;18.66;49.96;93399.66;5013245;28;20028;-90
2023/06/12 04:50:47;;;;;;;77.68;33.60;;;;;;;18.62;50.24;93409.44;5021091;28;20041;-93
2023/06/12 04:53:13;;;;;;;58.20;26.65;;;;;;;18.63;50.32;93400.69;5030652;28;20037;-92
2023/06/12 04:55:41;;;;;;;61.80;32.75;;;;;;;18.78;50.29;93403.03;5018791;28;20049;-92
2023/06/12 04:58:07;;;;;;;46.95;24.85;;;;;;;18.78;50.07;93398.31;5008264;28;20666;-92
2023/06/12 05:00:32;;;;;;;50.90;23.15;;;;;;;18.93;50.09;93388.94;5038954;28;20044;-93
2023/06/12 05:02:59;;;;;;;49.90;25.63;;;;;;;19.05;49.84;93382.81;5030470;28;20053;-90
2023/06/12 05:05:24;;;;;;;43.90;25.05;;;;;;;19.01;49.43;93382.38;5011727;28;20041;-89
2023/06/12 05:07:50;;;;;;;48.92;27.05;;;;;;;19.01;49.96;93387.84;5046893;28;20048;-91
2023/06/12 05:10:15;;;;;;;48.15;27.27;;;;;;;19.06;49.61;93386.28;5035507;28;20049;-92
2023/06/12 05:12:44;;;;;;;77.05;36.90;;;;;;;19.08;49.81;93383.78;5063032;28;20045;-90
2023/06/12 05:15:09;;;;;;;73.85;34.80;;;;;;;19.09;49.55;93388.00;5036668;28;20037;-92
2023/06/12 05:17:36;;;;;;;74.03;36.20;;;;;;;19.11;49.58;93396.44;5026439;28;20040;-90
2023/06/12 05:20:04;;;;;;;69.13;33.45;;;;;;;19.16;49.66;93395.66;4996001;28;20496;-90
2023/06/12 05:22:30;;;;;;;54.55;30.08;;;;;;;19.18;49.31;93393.88;5004014;28;20041;-90
2023/06/12 05:24:56;;;;;;;53.80;27.45;;;;;;;19.18;49.50;93399.34;5003427;28;20041;-91
2023/06/12 05:27:22;;;;;;;42.60;24.48;;;;;;;19.22;49.54;93396.34;5012472;28;20037;-91
2023/06/12 05:29:47;;;;;;;60.15;31.00;;;;;;;19.18;49.74;93398.63;5008988;28;20053;-88
2023/06/12 05:32:13;;;;;;;56.03;28.85;;;;;;;19.23;49.46;93402.56;5022303;28;20395;-90
2023/06/12 05:34:38;;;;;;;42.72;25.02;;;;;;;19.26;49.31;93402.28;4992807;28;20484;-83
2023/06/12 05:37:03;;;;;;;47.15;22.13;;;;;;;19.30;49.30;93408.19;5024955;28;20046;-85
2023/06/12 05:39:29;;;;;;;47.45;21.85;;;;;;;19.27;49.45;93403.72;5008402;28;20050;-87
2023/06/12 05:41:54;;;;;;;34.47;19.55;;;;;;;19.24;49.45;93399.31;4976727;28;20111;-87
2023/06/12 05:44:20;;;;;;;46.03;21.73;;;;;;;19.37;49.39;93404.88;5042913;28;20391;-87
2023/06/12 05:46:48;;;;;;;32.42;17.95;;;;;;;19.36;49.52;93400.63;5028846;28;20045;-86
2023/06/12 05:49:13;;;;;;;31.88;16.42;;;;;;;19.27;49.58;93406.47;5010867;28;20066;-86
2023/06/12 05:51:39;;;;;;;51.70;17.38;;;;;;;19.41;49.08;93399.84;5033584;28;20100;-90
2023/06/12 05:54:07;;;;;;;40.95;13.95;;;;;;;19.40;49.32;93405.84;5025275;28;20099;-90
2023/06/12 05:56:32;;;;;;;29.67;11.27;;;;;;;19.19;49.47;93400.09;5025709;28;20052;-86
2023/06/12 05:58:58;;;;;;;50.45;24.67;;;;;;;19.33;49.42;93404.41;4994485;28;20041;-89
2023/06/12 06:01:25;;;;;;;19.20;9.40;;;;;;;19.22;49.60;93401.06;4995653;28;20037;-89
2023/06/12 06:03:50;;;;;;;18.00;8.10;;;;;;;19.31;50.18;93403.44;5010406;28;20072;-88
2023/06/12 06:06:16;;;;;;;19.73;7.95;;;;;;;19.38;50.35;93405.59;5007585;28;20038;-88
2023/06/12 06:08:45;;;;;;;12.32;8.48;;;;;;;19.35;49.64;93396.41;5032397;28;20133;-92
2023/06/12 06:11:10;;;;;;;15.27;7.93;;;;;;;19.36;49.70;93389.66;5023894;28;20056;-90
2023/06/12 06:13:37;;;;;;;11.48;7.55;;;;;;;19.37;49.59;93395.91;4997598;28;20041;-87
2023/06/12 06:16:03;;;;;;;12.18;7.63;;;;;;;19.36;49.79;93397.91;5012000;28;20038;-88
2023/06/12 06:18:29;;;;;;;10.77;6.03;;;;;;;19.50;49.69;93401.47;4994749;28;20510;-89
2023/06/12 06:20:54;;;;;;;10.90;7.82;;;;;;;19.39;49.78;93405.09;5018469;28;20097;-92
2023/06/12 06:23:21;;;;;;;8.55;5.95;;;;;;;19.42;49.62;93412.28;5015565;28;20104;-88
2023/06/12 06:25:47;;;;;;;12.20;6.07;;;;;;;19.42;48.76;93411.53;4989025;28;20125;-91
2023/06/12 06:28:12;;;;;;;8.43;4.95;;;;;;;19.34;48.87;93407.88;5046596;28;20050;-87
2023/06/12 06:30:38;;;;;;;39.45;25.63;;;;;;;19.36;48.75;93413.59;5029751;28;20049;-88
2023/06/12 06:33:03;;;;;;;9.90;6.50;;;;;;;19.47;48.28;93416.22;5025405;28;20057;-88
2023/06/12 06:35:29;;;;;;;12.13;7.10;;;;;;;19.42;48.51;93422.50;5008376;28;20045;-87
2023/06/12 06:37:56;;;;;;;37.40;10.30;;;;;;;19.45;48.64;93421.47;5016942;28;20041;-87
2023/06/12 06:40:21;;;;;;;38.40;10.85;;;;;;;19.40;48.28;93422.28;5022265;28;20038;-88
2023/06/12 06:42:47;;;;;;;72.03;15.63;;;;;;;19.42;48.83;93425.25;5030297;28;20044;-86
2023/06/12 06:45:14;;;;;;;95.93;40.83;;;;;;;19.42;48.39;93417.75;5065087;28;20448;-92
2023/06/12 06:47:39;;;;;;;92.03;37.85;;;;;;;19.45;48.30;93426.97;5020876;28;20052;-90
2023/06/12 06:50:06;;;;;;;52.28;15.70;;;;;;;19.45;48.62;93429.69;5013441;28;20037;-91
2023/06/12 06:52:32;;;;;;;44.92;17.80;;;;;;;19.47;48.26;93425.19;5032422;28;20579;-90
2023/06/12 06:54:57;;;;;;;32.80;12.90;;;;;;;19.52;48.64;93432.59;5057411;28;20041;-88
2023/06/12 06:57:23;;;;;;;44.75;13.82;;;;;;;19.45;48.69;93430.44;5051707;28;20079;-88
2023/06/12 06:59:50;;;;;;;25.70;12.15;;;;;;;19.51;48.98;93433.13;5037068;28;20052;-88
2023/06/12 07:02:16;;;;;;;44.03;13.95;;;;;;;19.41;49.07;93432.72;5045189;28;20062;-89
2023/06/12 07:04:48;;;;;;;74.25;14.95;;;;;;;19.50;48.99;93437.88;5023693;28;20144;-88
2023/06/12 07:07:13;;;;;;;39.40;14.38;;;;;;;19.59;48.67;93438.78;5071114;28;20056;-88
2023/06/12 07:09:39;;;;;;;30.80;11.23;;;;;;;19.55;48.68;93433.56;5066968;28;20079;-90
2023/06/12 07:12:05;;;;;;;138.43;78.63;;;;;;;19.55;48.69;93428.09;5016438;28;20564;-89
2023/06/12 07:14:31;;;;;;;161.90;89.47;;;;;;;19.55;48.96;93435.56;5039502;28;20076;-87
2023/06/12 07:16:57;;;;;;;84.65;50.83;;;;;;;19.61;48.67;93441.75;5039000;28;20044;-88
2023/06/12 07:19:22;;;;;;;32.65;16.58;;;;;;;19.53;48.24;93433.34;5055967;28;20067;-87
2023/06/12 07:21:49;;;;;;;26.02;15.13;;;;;;;19.58;47.93;93432.53;5051744;28;20053;-88
2023/06/12 07:24:17;;;;;;;22.17;13.35;;;;;;;19.61;47.89;93436.25;5068912;28;20076;-88
2023/06/12 07:26:44;;;;;;;21.45;14.30;;;;;;;19.49;47.92;93435.59;5075970;28;20108;-87
2023/06/12 07:29:12;;;;;;;22.15;12.52;;;;;;;19.57;46.74;93438.53;5038120;28;20064;-88
2023/06/12 07:31:37;;;;;;;29.35;11.32;;;;;;;19.56;46.10;93448.03;5032476;28;20429;-88
2023/06/12 07:34:04;;;;;;;47.45;14.48;;;;;;;19.57;45.66;93441.28;5045451;28;20037;-88
2023/06/12 07:36:35;;;;;;;49.25;12.75;;;;;;;19.55;45.14;93441.06;5057992;28;20048;-88
2023/06/12 07:39:02;;;;;;;48.40;11.00;;;;;;;19.41;44.82;93445.69;5073686;28;20033;-90
2023/06/12 07:41:28;;;;;;;35.30;11.82;;;;;;;19.48;44.73;93445.13;5039005;28;20116;-88
2023/06/12 07:43:53;;;;;;;41.00;12.07;;;;;;;19.53;44.82;93444.31;5035504;28;20041;-90
2023/06/12 07:46:19;;;;;;;23.15;10.55;;;;;;;19.59;44.32;93441.50;5025051;28;20052;-87
2023/06/12 07:48:44;;;;;;;33.28;13.65;;;;;;;19.54;44.42;93445.06;5048582;28;20048;-92
2023/06/12 07:51:10;;;;;;;33.85;11.20;;;;;;;19.55;44.08;93430.84;5043490;28;20077;-88
2023/06/12 07:53:35;;;;;;;51.33;13.40;;;;;;;19.54;44.29;93437.56;5047332;28;20037;-90
2023/06/12 07:56:01;;;;;;;66.45;18.88;;;;;;;19.55;43.94;93441.81;5040678;28;20120;-90
2023/06/12 07:58:27;;;;;;;56.17;15.15;;;;;;;19.58;43.82;93432.53;5074331;28;20099;-91
2023/06/12 08:00:54;;;;;;;44.72;13.18;;;;;;;19.62;43.60;93437.75;5047973;28;20049;-89
2023/06/12 08:03:25;;;;;;;38.05;10.48;;;;;;;19.69;43.71;93429.69;5042818;28;20513;-89
2023/06/12 08:05:53;;;;;;;30.10;9.13;;;;;;;19.71;43.79;93435.34;5069238;28;20045;-91
2023/06/12 08:08:20;;;;;;;36.40;8.73;;;;;;;19.74;43.89;93444.56;5033407;28;20041;-89
2023/06/12 08:10:47;;;;;;;30.50;10.40;;;;;;;19.68;44.08;93438.41;5043046;28;20045;-89
2023/06/12 08:13:12;;;;;;;27.73;8.98;;;;;;;19.76;43.43;93431.81;5042142;28;20037;-91
2023/06/12 08:15:38;;;;;;;23.33;9.50;;;;;;;19.67;42.91;93434.94;5028523;28;20192;-90
2023/06/12 08:18:03;;;;;;;22.20;9.10;;;;;;;19.68;43.01;93422.69;5048404;28;20044;-90
2023/06/12 08:20:31;;;;;;;15.02;9.00;;;;;;;19.59;42.47;93427.81;5069859;28;20048;-89
2023/06/12 08:22:57;;;;;;;63.92;11.50;;;;;;;19.68;42.67;93427.44;5041143;28;20037;-89
2023/06/12 08:25:23;;;;;;;50.15;12.07;;;;;;;19.57;42.76;93430.31;5038474;28;20106;-88
2023/06/12 08:27:48;;;;;;;76.68;28.85;;;;;;;19.61;42.39;93428.78;5019505;28;20064;-88
2023/06/12 08:30:14;;;;;;;124.32;59.05;;;;;;;19.68;42.20;93430.94;5045340;28;20056;-88
2023/06/12 08:32:40;;;;;;;173.20;85.88;;;;;;;19.70;42.79;93433.16;5032112;28;20045;-88
2023/06/12 08:35:06;;;;;;;131.93;59.85;;;;;;;19.69;42.44;93428.94;5036332;28;20115;-87
2023/06/12 08:37:33;;;;;;;100.50;42.05;;;;;;;19.66;41.68;93429.97;5046949;28;20036;-88
2023/06/12 08:39:58;;;;;;;74.30;30.27;;;;;;;19.71;40.57;93426.38;5055827;28;20052;-88
2023/06/12 08:42:24;;;;;;;71.55;33.03;;;;;;;19.74;40.47;93428.84;5020057;28;20042;-87
2023/06/12 08:44:49;;;;;;;58.67;25.50;;;;;;;19.80;40.26;93420.53;5050637;28;20037;-91
2023/06/12 08:47:16;;;;;;;32.08;14.57;;;;;;;19.75;39.23;93413.13;5008445;28;20758;-88
2023/06/12 08:49:41;;;;;;;53.15;23.60;;;;;;;19.78;39.47;93417.56;5023449;28;20045;-89
2023/06/12 08:52:10;;;;;;;54.67;22.73;;;;;;;19.73;39.86;93423.88;5029917;28;20040;-88
2023/06/12 08:54:39;;;;;;;34.72;14.52;;;;;;;19.65;39.57;93426.47;5026158;28;20038;-90
2023/06/12 08:57:06;;;;;;;35.50;17.15;;;;;;;19.74;39.56;93433.59;5025494;28;20051;-88
2023/06/12 08:59:31;;;;;;;34.22;16.48;;;;;;;19.69;39.69;93426.94;5031259;28;20067;-87
2023/06/12 09:01:57;;;;;;;25.90;13.68;;;;;;;19.71;39.50;93431.88;5025804;28;20503;-87
2023/06/12 09:04:32;;;;;;;59.53;34.85;;;;;;;19.70;39.54;93416.69;5030647;28;20046;-87
2023/06/12 09:07:03;;;;;;;27.80;12.65;;;;;;;19.75;39.67;93411.13;5026472;28;20072;-88
2023/06/12 09:09:41;;;;;;;20.40;9.07;;;;;;;19.72;39.69;93425.13;5066115;28;20091;-88
2023/06/12 09:12:12;;;;;;;17.90;8.45;;;;;;;19.64;39.64;93427.75;5051736;28;20137;-88
2023/06/12 09:14:39;;;;;;;31.10;9.25;;;;;;;19.66;39.72;93422.47;5046227;28;20049;-90
2023/06/12 09:17:04;;;;;;;41.50;13.40;;;;;;;19.74;39.84;93433.59;5067090;28;20044;-90
2023/06/12 09:19:39;;;;;;;36.50;11.90;;;;;;;19.72;40.07;93438.84;5019843;28;20049;-88
2023/06/12 09:22:05;;;;;;;36.30;9.85;;;;;;;19.85;39.97;93431.44;5042022;28;20048;-90
2023/06/12 09:24:32;;;;;;;23.58;8.15;;;;;;;19.72;39.90;93433.34;5047055;28;20050;-89
2023/06/12 09:26:57;;;;;;;39.28;11.48;;;;;;;19.78;39.45;93429.28;5037040;28;20818;-90
2023/06/12 09:29:30;;;;;;;63.00;16.77;;;;;;;19.69;39.53;93440.66;5002952;28;20138;-90
2023/06/12 09:32:00;;;;;;;33.67;10.18;;;;;;;19.74;39.28;93442.56;5035703;28;20054;-88
2023/06/12 09:34:27;;;;;;;32.13;11.68;;;;;;;19.75;39.21;93440.53;5065008;28;20573;-90
2023/06/12 09:36:55;;;;;;;16.73;5.53;;;;;;;19.80;38.72;93445.22;5054573;28;20067;-90
2023/06/12 09:39:26;;;;;;;62.72;38.03;;;;;;;19.78;38.98;93445.00;5069026;28;20101;-90
2023/06/12 09:41:53;;;;;;;53.33;29.73;;;;;;;19.74;39.27;93452.78;5016440;28;20172;-89
2023/06/12 09:44:22;;;;;;;156.75;79.03;;;;;;;19.70;39.29;93444.13;5037515;28;20428;-88
2023/06/12 09:46:48;;;;;;;89.20;49.97;;;;;;;19.74;39.20;93453.53;5033142;28;20183;-89
2023/06/12 09:49:14;;;;;;;46.00;27.23;;;;;;;19.68;39.51;93452.13;5050752;28;20028;-88
2023/06/12 09:51:42;;;;;;;62.33;25.90;;;;;;;19.74;39.52;93453.53;5047811;28;20524;-89
2023/06/12 09:54:08;;;;;;;68.80;24.98;;;;;;;19.77;39.39;93457.22;5031324;28;20105;-89
2023/06/12 09:56:34;;;;;;;45.40;20.30;;;;;;;19.76;39.13;93445.53;5051460;28;20040;-88
2023/06/12 09:59:00;;;;;;;47.38;14.10;;;;;;;19.69;39.29;93448.13;5033333;28;20050;-91
2023/06/12 10:01:26;;;;;;;55.55;14.45;;;;;;;19.69;39.30;93437.16;5056135;28;20037;-90
2023/06/12 10:03:54;;;;;;;32.45;10.32;;;;;;;19.75;39.40;93448.78;5029054;28;20104;-88
2023/06/12 10:06:23;;;;;;;21.75;9.45;;;;;;;19.72;39.31;93438.84;5033903;28;20537;-88
2023/06/12 10:08:50;;;;;;;21.60;7.40;;;;;;;19.67;39.54;93437.69;5066234;28;20135;-88
2023/06/12 10:11:16;;;;;;;14.45;6.55;;;;;;;19.70;39.88;93449.63;5043689;28;20136;-90
2023/06/12 10:13:41;;;;;;;14.85;6.05;;;;;;;19.72;40.36;93439.59;5026690;28;20061;-89
2023/06/12 10:16:07;;;;;;;7.13;4.85;;;;;;;19.66;40.41;93435.44;5040707;28;20052;-89
2023/06/12 10:18:33;;;;;;;12.25;5.30;;;;;;;19.63;40.52;93437.22;5042037;28;20053;-87
2023/06/12 10:20:58;;;;;;;10.77;4.97;;;;;;;19.70;40.64;93438.66;5025535;28;20042;-88
2023/06/12 10:23:23;;;;;;;11.32;5.57;;;;;;;19.67;40.52;93434.19;5026562;28;20030;-88
2023/06/12 10:25:49;;;;;;;14.30;5.53;;;;;;;19.78;40.60;93436.78;5041468;28;20045;-89
2023/06/12 10:28:16;;;;;;;8.93;4.13;;;;;;;19.71;40.59;93438.09;5028232;28;20056;-90
2023/06/12 10:31:13;;;;;;;8.23;4.28;;;;;;;19.69;40.34;93431.69;5032852;28;20045;-90
2023/06/12 10:33:56;;;;;;;11.82;4.18;;;;;;;19.71;40.23;93427.13;5012183;28;20038;-89
2023/06/12 10:36:22;;;;;;;7.15;3.65;;;;;;;19.82;39.24;93429.00;5025801;28;20041;-88
2023/06/12 10:38:48;;;;;;;6.15;3.53;;;;;;;19.75;39.93;93427.56;5045390;28;20041;-88
2023/06/12 10:41:28;;;;;;;5.65;3.65;;;;;;;19.73;39.86;93427.34;5044381;28;20045;-89
2023/06/12 10:43:54;;;;;;;;;;;;;;;19.73;40.03;93412.91;5051344;28;20041;-88
2023/06/12 10:46:19;;;;;;;9.18;3.70;;;;;;;19.78;40.19;93417.56;5030687;28;19932;-89
2023/06/12 10:48:46;;;;;;;10.13;4.05;;;;;;;19.76;39.90;93420.84;5023361;28;20120;-88
2023/06/12 10:51:11;;;;;;;41.13;19.52;;;;;;;19.83;39.67;93414.03;5045039;28;20495;-89
2023/06/12 10:53:36;;;;;;;121.20;65.00;;;;;;;19.73;39.99;93415.63;5028236;28;20048;-90
2023/06/12 10:56:08;;;;;;;43.72;12.77;;;;;;;19.70;40.14;93411.94;5020655;28;20033;-89
2023/06/12 10:58:35;;;;;;;33.65;14.02;;;;;;;19.77;40.43;93414.09;5024730;28;20095;-90
2023/06/12 11:01:02;;;;;;;22.75;10.40;;;;;;;19.70;40.24;93406.44;5032561;28;20107;-89
2023/06/12 11:03:30;;;;;;;24.85;9.13;;;;;;;19.80;40.12;93401.34;5020477;28;20913;-89
2023/06/12 11:06:00;;;;;;;25.13;11.77;;;;;;;19.71;40.57;93404.44;5001219;28;20394;-91
2023/06/12 11:08:30;;;;;;;67.22;23.63;;;;;;;19.75;40.79;93399.41;5052768;28;20036;-89
2023/06/12 11:10:55;;;;;;;39.85;14.50;;;;;;;19.72;40.80;93408.66;5035203;28;20067;-89
2023/06/12 11:13:24;;;;;;;42.13;15.15;;;;;;;19.71;40.61;93402.44;5028157;28;20033;-89
2023/06/12 11:15:51;;;;;;;19.10;9.38;;;;;;;19.68;40.69;93400.03;5000794;28;20050;-89
2023/06/12 11:18:17;;;;;;;51.65;12.10;;;;;;;19.68;40.18;93397.28;5010365;28;20045;-89
2023/06/12 11:20:42;;;;;;;16.83;7.32;;;;;;;19.61;40.56;93393.13;5012740;28;20045;-89
2023/06/12 11:23:08;;;;;;;41.33;23.15;;;;;;;19.70;40.44;93383.78;5016080;28;20045;-89